createdAt,value
2017-08-28T19:47:03.905Z,24.26
2017-08-28T19:47:30.019Z,24.21
2017-08-28T19:47:56.125Z,24.2
2017-08-28T19:48:22.248Z,24.24
2017-08-28T19:48:48.352Z,24.23
2017-08-28T19:49:14.462Z,24.28
2017-08-28T19:49:40.579Z,24.32
2017-08-28T19:57:54.549Z,24.2
2017-08-28T19:58:20.692Z,24.14
2017-08-28T19:58:46.826Z,24.2
2017-08-28T19:59:12.971Z,24.17
2017-08-28T19:59:39.133Z,24.14
2017-08-28T20:00:05.263Z,24.13
2017-08-28T20:00:31.404Z,24.21
2017-08-28T20:00:57.539Z,24.2
2017-08-28T20:01:23.670Z,24.14
2017-08-28T20:01:49.829Z,24.13
2017-08-28T20:02:15.940Z,24.28
2017-08-28T20:02:42.072Z,24.18
2017-08-28T20:03:08.210Z,24.29
2017-08-28T20:03:34.347Z,24.32
2017-08-28T20:04:00.600Z,24.4
2017-08-28T20:04:26.807Z,24.4
2017-08-28T20:04:52.947Z,24.38
2017-08-28T20:05:19.076Z,24.33
2017-08-28T20:05:45.284Z,24.33
2017-08-28T20:06:11.463Z,24.32
2017-08-28T20:06:37.666Z,24.32
2017-08-28T20:07:03.809Z,24.35
2017-08-28T20:07:30.039Z,24.3
2017-08-28T20:07:56.172Z,24.26
2017-08-28T20:08:22.350Z,24.21
2017-08-28T20:08:48.625Z,24.16
2017-08-28T20:09:14.793Z,24.14
2017-08-28T20:09:41.016Z,24.13
2017-08-28T20:10:07.365Z,24.16
2017-08-28T20:10:33.503Z,24.11
2017-08-28T20:10:59.640Z,24.06
2017-08-28T20:11:25.767Z,24.13
2017-08-28T20:11:51.914Z,24.1
2017-08-28T20:12:18.070Z,24.13
2017-08-28T20:12:44.215Z,24.1
2017-08-28T20:13:10.363Z,24.01
2017-08-28T20:13:36.521Z,23.95
2017-08-28T20:14:02.662Z,23.93
2017-08-28T20:14:28.822Z,24.01
2017-08-28T20:14:54.951Z,23.91
2017-08-28T20:15:21.091Z,23.93
2017-08-28T20:15:47.244Z,23.91
2017-08-28T20:16:13.386Z,23.91
2017-08-28T20:16:39.556Z,23.92
2017-08-28T20:17:05.740Z,23.95
2017-08-28T20:17:31.987Z,23.98
2017-08-28T20:17:58.133Z,24.03
2017-08-28T20:18:24.311Z,24.03
2017-08-28T20:18:50.442Z,24.1
2017-08-28T20:19:16.595Z,24.14
2017-08-28T20:19:42.804Z,24.14
2017-08-28T20:20:09.057Z,24.13
2017-08-28T20:20:35.296Z,24.13
2017-08-28T20:21:01.439Z,24.18
2017-08-28T20:21:27.570Z,24.18
2017-08-28T20:21:53.705Z,24.21
2017-08-28T20:22:19.848Z,24.17
2017-08-28T20:22:46.002Z,24.18
2017-08-28T20:23:12.142Z,24.11
2017-08-28T20:23:38.274Z,24.14
2017-08-28T20:24:04.416Z,24.13
2017-08-28T20:24:30.603Z,24.13
2017-08-28T20:24:57.061Z,24.1
2017-08-28T20:25:23.213Z,24.08
2017-08-28T20:25:49.360Z,24.06
2017-08-28T20:26:15.495Z,24.17
2017-08-28T20:26:41.759Z,24.13
2017-08-28T20:27:08.126Z,24.08
2017-08-28T20:27:34.255Z,24.08
2017-08-28T20:28:00.387Z,24.1
2017-08-28T20:28:26.545Z,23.98
2017-08-28T20:28:53.181Z,23.96
2017-08-28T20:29:19.398Z,23.88
2017-08-28T20:29:45.535Z,23.88
2017-08-28T20:30:11.697Z,23.83
2017-08-28T20:30:37.829Z,23.8
2017-08-28T20:31:03.968Z,23.78
2017-08-28T20:31:30.101Z,23.8
2017-08-28T20:31:56.229Z,23.77
2017-08-28T20:32:22.369Z,23.81
2017-08-28T20:32:48.520Z,23.8
2017-08-28T20:33:14.663Z,23.77
2017-08-28T20:33:40.803Z,23.8
2017-08-28T20:34:06.956Z,23.78
2017-08-28T20:34:33.090Z,23.68
2017-08-28T20:34:59.229Z,23.61
2017-08-28T20:35:25.367Z,23.59
2017-08-28T20:35:51.492Z,23.61
2017-08-28T20:36:17.656Z,23.56
2017-08-28T20:36:43.785Z,23.56
2017-08-28T20:37:09.931Z,23.59
2017-08-28T20:37:36.061Z,23.54
2017-08-28T20:38:02.195Z,23.47
2017-08-28T20:38:28.333Z,23.43
2017-08-28T20:38:54.466Z,23.41
2017-08-28T20:39:20.621Z,23.41
2017-08-28T20:39:46.762Z,23.39
2017-08-28T20:40:12.895Z,23.31
2017-08-28T20:40:39.049Z,23.55
2017-08-28T20:41:05.180Z,23.54
2017-08-28T20:41:31.319Z,23.51
2017-08-28T20:41:57.451Z,23.5
2017-08-28T20:42:23.612Z,23.5
2017-08-28T20:42:49.753Z,23.46
2017-08-28T20:43:15.883Z,23.43
2017-08-28T20:43:42.021Z,23.47
2017-08-28T20:44:08.164Z,23.5
2017-08-28T20:44:34.297Z,23.43
2017-08-28T20:45:00.427Z,23.39
2017-08-28T20:45:26.561Z,23.58
2017-08-28T20:45:52.698Z,23.4
2017-08-28T20:46:18.836Z,23.41
2017-08-28T20:46:44.974Z,23.47
2017-08-28T20:47:11.099Z,23.47
2017-08-28T20:47:37.237Z,23.39
2017-08-28T20:48:03.374Z,23.37
2017-08-28T20:48:29.511Z,23.34
2017-08-28T20:48:55.645Z,23.34
2017-08-28T20:49:21.781Z,23.39
2017-08-28T20:49:47.913Z,23.24
2017-08-28T20:50:14.053Z,23.2
2017-08-28T20:50:40.186Z,23.23
2017-08-28T20:51:06.318Z,23.21
2017-08-28T20:51:32.451Z,23.25
2017-08-28T20:51:58.584Z,23.31
2017-08-28T20:52:24.721Z,23.25
2017-08-28T20:52:50.855Z,23.32
2017-08-28T20:53:16.993Z,23.24
2017-08-28T20:53:43.123Z,23.27
2017-08-28T20:54:09.262Z,23.39
2017-08-28T20:54:35.397Z,23.37
2017-08-28T20:55:01.533Z,23.31
2017-08-28T20:55:27.669Z,23.23
2017-08-28T20:55:53.810Z,23.17
2017-08-28T20:56:19.941Z,23.2
2017-08-28T20:56:46.078Z,23.17
2017-08-28T20:57:12.216Z,23.15
2017-08-28T20:57:38.349Z,23.17
2017-08-28T20:58:04.485Z,23.12
2017-08-28T20:58:30.616Z,23.12
2017-08-28T20:58:56.757Z,23.12
2017-08-28T20:59:22.917Z,23.1
2017-08-28T20:59:49.052Z,23
2017-08-28T21:00:15.188Z,23.17
2017-08-28T21:00:41.328Z,23.03
2017-08-28T21:01:07.456Z,23.13
2017-08-28T21:01:33.593Z,23.06
2017-08-28T21:01:59.731Z,23.03
2017-08-28T21:02:25.857Z,23.09
2017-08-28T21:02:52.000Z,23.05
2017-08-28T21:03:18.135Z,23.03
2017-08-28T21:03:44.266Z,23.03
2017-08-28T21:04:10.397Z,23.09
2017-08-28T21:04:36.535Z,23.13
2017-08-28T21:05:02.669Z,23.12
2017-08-28T21:05:28.805Z,23.18
2017-08-28T21:05:54.938Z,23.18
2017-08-28T21:06:21.074Z,23.18
2017-08-28T21:06:47.208Z,23.13
2017-08-28T21:07:13.344Z,23.15
2017-08-28T21:07:39.479Z,23.09
2017-08-28T21:08:05.613Z,23.13
2017-08-28T21:08:31.743Z,23
2017-08-28T21:08:57.874Z,23.02
2017-08-28T21:09:24.005Z,23.03
2017-08-28T21:09:50.150Z,23.1
2017-08-28T21:10:16.276Z,23.02
2017-08-28T21:10:42.439Z,23.02
2017-08-28T21:11:08.578Z,23
2017-08-28T21:11:34.712Z,22.96
2017-08-28T21:12:00.845Z,23.02
2017-08-28T21:12:26.984Z,23.06
2017-08-28T21:12:53.114Z,22.93
2017-08-28T21:13:19.250Z,22.96
2017-08-28T21:13:45.386Z,22.88
2017-08-28T21:14:11.522Z,22.88
2017-08-28T21:14:37.658Z,22.91
2017-08-28T21:15:03.794Z,22.93
2017-08-28T21:15:29.928Z,22.94
2017-08-28T21:15:56.059Z,22.91
2017-08-28T21:16:22.213Z,22.94
2017-08-28T21:16:48.350Z,22.94
2017-08-28T21:17:14.489Z,22.88
2017-08-28T21:17:40.617Z,22.91
2017-08-28T21:18:06.775Z,22.93
2017-08-28T21:18:32.909Z,22.98
2017-08-28T21:18:59.053Z,22.85
2017-08-28T21:19:25.178Z,22.88
2017-08-28T21:19:51.514Z,22.93
2017-08-28T21:20:17.649Z,22.85
2017-08-28T21:20:43.789Z,22.81
2017-08-28T21:21:11.429Z,22.83
2017-08-28T21:21:39.082Z,22.87
2017-08-28T21:22:05.145Z,22.83
2017-08-28T21:22:31.280Z,22.76
2017-08-28T21:22:57.438Z,22.75
2017-08-28T21:23:23.566Z,22.65
2017-08-28T21:23:49.707Z,22.76
2017-08-28T21:24:15.841Z,22.75
2017-08-28T21:24:41.973Z,22.7
2017-08-28T21:25:08.115Z,22.72
2017-08-28T21:25:34.246Z,22.7
2017-08-28T21:26:00.382Z,22.63
2017-08-28T21:26:26.513Z,22.66
2017-08-28T21:26:52.643Z,22.62
2017-08-28T21:27:18.783Z,22.55
2017-08-28T21:27:44.914Z,22.54
2017-08-28T21:28:11.050Z,22.54
2017-08-28T21:28:37.186Z,22.57
2017-08-28T21:29:03.319Z,22.51
2017-08-28T21:29:29.457Z,22.53
2017-08-28T21:29:55.584Z,22.54
2017-08-28T21:30:21.723Z,22.54
2017-08-28T21:30:47.860Z,22.55
2017-08-28T21:31:13.990Z,22.53
2017-08-28T21:31:40.129Z,22.68
2017-08-28T21:32:06.285Z,22.6
2017-08-28T21:32:32.413Z,22.53
2017-08-28T21:32:58.577Z,22.54
2017-08-28T21:33:24.731Z,22.54
2017-08-28T21:33:50.867Z,22.51
2017-08-28T21:34:16.993Z,22.53
2017-08-28T21:34:43.130Z,22.5
2017-08-28T21:35:09.260Z,22.47
2017-08-28T21:35:35.400Z,22.47
2017-08-28T21:36:01.533Z,22.44
2017-08-28T21:36:27.690Z,22.47
2017-08-28T21:36:53.825Z,22.43
2017-08-28T21:37:19.960Z,22.45
2017-08-28T21:37:46.093Z,22.45
2017-08-28T21:38:12.225Z,22.36
2017-08-28T21:38:38.366Z,22.39
2017-08-28T21:39:04.507Z,22.33
2017-08-28T21:39:30.642Z,22.39
2017-08-28T21:39:56.778Z,22.28
2017-08-28T21:40:22.907Z,22.35
2017-08-28T21:40:49.041Z,22.3
2017-08-28T21:41:15.176Z,22.3
2017-08-28T21:41:41.319Z,22.29
2017-08-28T21:42:07.445Z,22.36
2017-08-28T21:42:33.575Z,22.25
2017-08-28T21:42:59.716Z,22.3
2017-08-28T21:43:25.842Z,22.28
2017-08-28T21:43:51.979Z,22.3
2017-08-28T21:44:18.116Z,22.28
2017-08-28T21:44:44.279Z,22.33
2017-08-28T21:45:10.414Z,22.33
2017-08-28T21:45:36.549Z,22.35
2017-08-28T21:46:02.681Z,22.3
2017-08-28T21:46:28.814Z,22.3
2017-08-28T21:46:54.951Z,22.26
2017-08-28T21:47:21.082Z,22.2
2017-08-28T21:47:47.212Z,22.32
2017-08-28T21:48:13.350Z,22.28
2017-08-28T21:48:39.487Z,22.23
2017-08-28T21:49:05.614Z,22.23
2017-08-28T21:49:31.752Z,22.17
2017-08-28T21:49:57.893Z,22.22
2017-08-28T21:50:24.052Z,22.2
2017-08-28T21:50:50.182Z,22.2
2017-08-28T21:51:16.320Z,22.14
2017-08-28T21:51:42.457Z,22.15
2017-08-28T21:52:08.587Z,22.15
2017-08-28T21:52:34.716Z,21.98
2017-08-28T21:53:00.853Z,22.14
2017-08-28T21:53:26.989Z,22.17
2017-08-28T21:53:53.122Z,22.18
2017-08-28T21:54:19.256Z,22.17
2017-08-28T21:54:45.390Z,22.25
2017-08-28T21:55:11.528Z,22.17
2017-08-28T21:55:37.660Z,22.2
2017-08-28T21:56:03.816Z,22.14
2017-08-28T21:56:29.956Z,22.22
2017-08-28T21:56:56.084Z,22.1
2017-08-28T21:57:22.214Z,22.06
2017-08-28T21:57:48.356Z,22.11
2017-08-28T21:58:14.485Z,22.06
2017-08-28T21:58:40.669Z,22.04
2017-08-28T21:59:06.802Z,21.96
2017-08-28T21:59:32.931Z,21.95
2017-08-28T21:59:59.067Z,21.93
2017-08-28T22:00:25.204Z,21.93
2017-08-28T22:00:51.340Z,21.89
2017-08-28T22:01:17.475Z,21.98
2017-08-28T22:01:43.600Z,21.92
2017-08-28T22:02:09.740Z,22
2017-08-28T22:02:35.875Z,22
2017-08-28T22:03:02.016Z,21.92
2017-08-28T22:03:28.152Z,21.91
2017-08-28T22:03:54.291Z,21.91
2017-08-28T22:04:20.433Z,21.95
2017-08-28T22:04:46.566Z,21.95
2017-08-28T22:05:12.699Z,21.91
2017-08-28T22:05:38.829Z,21.82
2017-08-28T22:06:04.962Z,21.83
2017-08-28T22:06:31.100Z,21.93
2017-08-28T22:06:57.258Z,21.79
2017-08-28T22:07:23.393Z,21.82
2017-08-28T22:07:49.531Z,21.8
2017-08-28T22:08:15.653Z,21.82
2017-08-28T22:08:41.792Z,21.8
2017-08-28T22:09:07.930Z,21.77
2017-08-28T22:09:34.065Z,21.82
2017-08-28T22:10:00.198Z,21.83
2017-08-28T22:10:26.358Z,21.76
2017-08-28T22:10:52.485Z,21.79
2017-08-28T22:11:18.612Z,21.79
2017-08-28T22:11:44.779Z,21.8
2017-08-28T22:12:10.931Z,21.82
2017-08-28T22:12:37.069Z,21.76
2017-08-28T22:13:03.208Z,21.79
2017-08-28T22:13:29.333Z,21.8
2017-08-28T22:13:55.475Z,21.77
2017-08-28T22:14:21.607Z,21.76
2017-08-28T22:14:47.742Z,21.79
2017-08-28T22:15:13.870Z,21.83
2017-08-28T22:15:40.013Z,21.7
2017-08-28T22:16:06.143Z,21.72
2017-08-28T22:16:32.275Z,21.64
2017-08-28T22:16:58.419Z,21.7
2017-08-28T22:17:24.551Z,21.79
2017-08-28T22:17:50.686Z,21.79
2017-08-28T22:18:16.822Z,21.77
2017-08-28T22:18:42.979Z,21.79
2017-08-28T22:19:09.117Z,21.76
2017-08-28T22:19:35.248Z,21.83
2017-08-28T22:20:01.387Z,21.79
2017-08-28T22:20:27.518Z,21.8
2017-08-28T22:20:53.656Z,21.76
2017-08-28T22:21:19.786Z,21.72
2017-08-28T22:21:45.916Z,21.79
2017-08-28T22:22:12.055Z,21.69
2017-08-28T22:22:38.188Z,21.72
2017-08-28T22:23:04.326Z,21.79
2017-08-28T22:23:30.456Z,21.76
2017-08-28T22:23:56.593Z,21.7
2017-08-28T22:24:22.722Z,21.7
2017-08-28T22:24:48.853Z,21.75
2017-08-28T22:25:14.993Z,21.76
2017-08-28T22:25:41.121Z,21.75
2017-08-28T22:26:07.261Z,21.72
2017-08-28T22:26:33.398Z,21.7
2017-08-28T22:26:59.544Z,21.67
2017-08-28T22:27:25.670Z,21.61
2017-08-28T22:27:51.802Z,21.61
2017-08-28T22:28:17.937Z,21.7
2017-08-28T22:28:44.084Z,21.61
2017-08-28T22:29:10.215Z,21.76
2017-08-28T22:29:36.349Z,21.76
2017-08-28T22:30:02.484Z,21.73
2017-08-28T22:30:28.617Z,21.72
2017-08-28T22:30:54.747Z,21.7
2017-08-28T22:31:20.886Z,21.77
2017-08-28T22:31:47.017Z,21.82
2017-08-28T22:32:13.154Z,21.89
2017-08-28T22:32:39.291Z,21.93
2017-08-28T22:33:05.414Z,21.95
2017-08-28T22:33:31.555Z,22.06
2017-08-28T22:33:57.692Z,22.04
2017-08-28T22:34:23.818Z,21.96
2017-08-28T22:34:49.957Z,21.95
2017-08-28T22:35:16.084Z,21.91
2017-08-28T22:35:42.220Z,21.91
2017-08-28T22:36:08.358Z,21.91
2017-08-28T22:36:34.491Z,21.88
2017-08-28T22:37:00.626Z,21.88
2017-08-28T22:37:26.759Z,21.83
2017-08-28T22:37:52.890Z,21.83
2017-08-28T22:38:19.046Z,21.76
2017-08-28T22:38:45.161Z,21.76
2017-08-28T22:39:11.291Z,21.82
2017-08-28T22:39:37.427Z,21.82
2017-08-28T22:40:03.559Z,21.8
2017-08-28T22:40:29.699Z,21.64
2017-08-28T22:40:55.828Z,21.7
2017-08-28T22:41:21.970Z,21.75
2017-08-28T22:41:48.125Z,21.61
2017-08-28T22:42:14.282Z,21.58
2017-08-28T22:42:40.410Z,21.57
2017-08-28T22:43:06.552Z,21.58
2017-08-28T22:43:32.690Z,21.66
2017-08-28T22:43:58.817Z,21.55
2017-08-28T22:44:24.957Z,21.62
2017-08-28T22:44:51.109Z,21.55
2017-08-28T22:45:17.244Z,21.52
2017-08-28T22:45:43.385Z,21.55
2017-08-28T22:46:09.522Z,21.54
2017-08-28T22:46:35.655Z,21.55
2017-08-28T22:47:01.778Z,21.58
2017-08-28T22:47:27.914Z,21.61
2017-08-28T22:47:54.054Z,21.58
2017-08-28T22:48:20.188Z,21.62
2017-08-28T22:48:46.326Z,21.58
2017-08-28T22:49:12.451Z,21.54
2017-08-28T22:49:38.584Z,21.55
2017-08-28T22:50:04.714Z,21.52
2017-08-28T22:50:30.844Z,21.46
2017-08-28T22:50:56.980Z,21.54
2017-08-28T22:51:23.116Z,21.52
2017-08-28T22:51:49.286Z,21.54
2017-08-28T22:52:15.438Z,21.46
2017-08-28T22:52:41.568Z,21.5
2017-08-28T22:53:07.704Z,21.45
2017-08-28T22:53:33.842Z,21.52
2017-08-28T22:53:59.992Z,21.43
2017-08-28T22:54:26.133Z,21.48
2017-08-28T22:54:52.265Z,21.48
2017-08-28T22:55:18.394Z,21.43
2017-08-28T22:55:44.535Z,21.48
2017-08-28T22:56:10.667Z,21.57
2017-08-28T22:56:36.806Z,21.57
2017-08-28T22:57:02.935Z,21.61
2017-08-28T22:57:29.071Z,21.58
2017-08-28T22:57:55.209Z,21.6
2017-08-28T22:58:21.336Z,21.57
2017-08-28T22:58:47.479Z,21.7
2017-08-28T22:59:13.617Z,21.64
2017-08-28T22:59:39.744Z,21.57
2017-08-28T23:00:05.873Z,21.62
2017-08-28T23:00:32.010Z,21.57
2017-08-28T23:00:58.168Z,21.61
2017-08-28T23:01:24.307Z,21.66
2017-08-28T23:01:50.434Z,21.64
2017-08-28T23:02:16.574Z,21.57
2017-08-28T23:02:42.709Z,21.57
2017-08-28T23:03:08.840Z,21.54
2017-08-28T23:03:34.980Z,21.51
2017-08-28T23:04:01.111Z,21.46
2017-08-28T23:04:27.238Z,21.55
2017-08-28T23:04:53.374Z,21.55
2017-08-28T23:05:19.505Z,21.52
2017-08-28T23:05:45.640Z,21.48
2017-08-28T23:06:11.773Z,21.42
2017-08-28T23:06:37.906Z,21.45
2017-08-28T23:07:04.043Z,21.5
2017-08-28T23:07:30.169Z,21.43
2017-08-28T23:07:56.297Z,21.37
2017-08-28T23:08:22.435Z,21.4
2017-08-28T23:08:48.570Z,21.37
2017-08-28T23:09:14.711Z,21.39
2017-08-28T23:09:40.854Z,21.35
2017-08-28T23:10:06.984Z,21.39
2017-08-28T23:10:33.178Z,21.42
2017-08-28T23:10:59.307Z,21.39
2017-08-28T23:11:25.442Z,21.39
2017-08-28T23:11:51.607Z,21.37
2017-08-28T23:12:17.755Z,21.37
2017-08-28T23:12:44.002Z,21.4
2017-08-28T23:13:10.162Z,21.4
2017-08-28T23:13:36.293Z,21.32
2017-08-28T23:14:02.423Z,21.29
2017-08-28T23:14:28.561Z,21.32
2017-08-28T23:14:54.746Z,21.33
2017-08-28T23:15:20.878Z,21.32
2017-08-28T23:15:47.057Z,21.42
2017-08-28T23:16:13.195Z,21.46
2017-08-28T23:16:39.341Z,21.42
2017-08-28T23:17:05.476Z,21.5
2017-08-28T23:17:31.615Z,21.58
2017-08-28T23:17:57.747Z,21.55
2017-08-28T23:18:23.881Z,21.52
2017-08-28T23:18:50.029Z,21.46
2017-08-28T23:19:16.173Z,21.45
2017-08-28T23:19:42.315Z,21.48
2017-08-28T23:20:08.452Z,21.4
2017-08-28T23:20:34.585Z,21.48
2017-08-28T23:21:00.729Z,21.4
2017-08-28T23:21:26.863Z,21.39
2017-08-28T23:21:53.006Z,21.43
2017-08-28T23:22:19.142Z,21.39
2017-08-28T23:22:45.282Z,21.43
2017-08-28T23:23:11.420Z,21.36
2017-08-28T23:23:37.551Z,21.39
2017-08-28T23:24:03.689Z,21.36
2017-08-28T23:24:29.819Z,21.37
2017-08-28T23:24:55.982Z,21.29
2017-08-28T23:25:22.132Z,21.3
2017-08-28T23:25:48.273Z,21.32
2017-08-28T23:26:14.424Z,21.27
2017-08-28T23:26:40.560Z,21.27
2017-08-28T23:27:06.704Z,21.32
2017-08-28T23:27:32.834Z,21.32
2017-08-28T23:27:58.974Z,21.39
2017-08-28T23:28:25.135Z,21.43
2017-08-28T23:28:51.267Z,21.37
2017-08-28T23:29:17.406Z,21.43
2017-08-28T23:29:43.543Z,21.42
2017-08-28T23:30:09.679Z,21.52
2017-08-28T23:30:35.841Z,21.61
2017-08-28T23:31:01.977Z,21.58
2017-08-28T23:31:28.107Z,21.52
2017-08-28T23:31:54.239Z,21.57
2017-08-28T23:32:20.379Z,21.57
2017-08-28T23:32:46.519Z,21.57
2017-08-28T23:33:12.641Z,21.66
2017-08-28T23:33:38.788Z,21.6
2017-08-28T23:34:04.935Z,21.57
2017-08-28T23:34:31.086Z,21.54
2017-08-28T23:34:57.197Z,21.48
2017-08-28T23:35:23.328Z,21.5
2017-08-28T23:35:49.486Z,21.4
2017-08-28T23:36:15.624Z,21.45
2017-08-28T23:36:41.757Z,21.4
2017-08-28T23:37:07.897Z,21.29
2017-08-28T23:37:34.027Z,21.25
2017-08-28T23:38:00.160Z,21.2
2017-08-28T23:38:26.291Z,21.14
2017-08-28T23:38:52.430Z,21.22
2017-08-28T23:39:18.565Z,21.2
2017-08-28T23:39:44.705Z,21.15
2017-08-28T23:40:10.847Z,21.07
2017-08-28T23:40:36.976Z,21.21
2017-08-28T23:41:03.124Z,21.09
2017-08-28T23:41:29.252Z,21.03
2017-08-28T23:41:55.393Z,21.12
2017-08-28T23:42:21.529Z,21.06
2017-08-28T23:42:47.656Z,21.09
2017-08-28T23:43:13.818Z,21.12
2017-08-28T23:43:39.942Z,21.15
2017-08-28T23:44:06.083Z,21.17
2017-08-28T23:44:32.218Z,21.11
2017-08-28T23:44:58.365Z,21.09
2017-08-28T23:45:24.503Z,21.12
2017-08-28T23:45:50.633Z,21.15
2017-08-28T23:46:16.793Z,21.24
2017-08-28T23:46:42.933Z,21.25
2017-08-28T23:47:09.090Z,21.27
2017-08-28T23:47:35.221Z,21.32
2017-08-28T23:48:01.351Z,21.32
2017-08-28T23:48:27.504Z,21.3
2017-08-28T23:48:53.646Z,21.25
2017-08-28T23:49:19.800Z,21.22
2017-08-28T23:49:45.943Z,21.27
2017-08-28T23:50:12.095Z,21.32
2017-08-28T23:50:38.226Z,21.37
2017-08-28T23:51:04.382Z,21.39
2017-08-28T23:51:30.523Z,21.4
2017-08-28T23:51:56.654Z,21.5
2017-08-28T23:52:22.796Z,21.45
2017-08-28T23:52:48.933Z,21.54
2017-08-28T23:53:15.083Z,21.58
2017-08-28T23:53:41.217Z,21.54
2017-08-28T23:54:07.360Z,21.58
2017-08-28T23:54:33.497Z,21.55
2017-08-28T23:54:59.637Z,21.55
2017-08-28T23:55:25.767Z,21.6
2017-08-28T23:55:51.897Z,21.64
2017-08-28T23:56:18.043Z,21.55
2017-08-28T23:56:44.183Z,21.6
2017-08-28T23:57:10.319Z,21.6
2017-08-28T23:57:36.448Z,21.58
2017-08-28T23:58:02.586Z,21.58
2017-08-28T23:58:28.723Z,21.62
2017-08-28T23:58:54.861Z,21.54
2017-08-28T23:59:21.000Z,21.55
2017-08-28T23:59:47.148Z,21.6
